Погода Гатчинана неделю

Ленинградская область, Россия

22 - 28 июля
  • 22июля
    Сегодня
    +14°
    +26°
    Ясно и безоблачно
    ВремяПогодаТемператураВлажностьДавлениеВетер, м/сВероятность осадков
    00:00Небольшая облачность+17°C99 %751 мм1.5 м/с45 %
    03:00Облачно с прояснениями+17°C99 %752 мм1.6 м/с2 %
    06:00Облачно с прояснениями+17°C99 %752 мм1.7 м/с2 %
    09:00Ясно и безоблачно+20°C87 %753 мм1.6 м/с2 %
    12:00Практически безоблачно+24°C62 %753 мм2.8 м/с4 %
    15:00Ясно и безоблачно+25°C49 %753 мм2.7 м/с2 %
    18:00Ясно и безоблачно+25°C52 %753 мм3.1 м/с1 %
    21:00Ясно и безоблачно+21°C74 %754 мм3.0 м/с2 %
  • 23июля
    Вторник
    +14°
    +25°
    Практически безоблачно
    ВремяПогодаТемператураВлажностьДавлениеВетер, м/сВероятность осадков
    00:00Ясно и безоблачно+17°C83 %754 мм2.5 м/с2 %
    03:00Ясно и безоблачно+15°C89 %754 мм2.0 м/с2 %
    06:00Практически безоблачно+16°C86 %754 мм2.0 м/с2 %
    09:00Небольшая облачность+21°C72 %755 мм1.9 м/с2 %
    12:00Ясно и безоблачно+24°C50 %755 мм2.9 м/с1 %
    15:00Практически безоблачно+25°C45 %754 мм2.6 м/с1 %
    18:00Практически безоблачно+25°C46 %754 мм2.1 м/с2 %
    21:00Ясно и безоблачно+20°C67 %754 мм2.0 м/с2 %
  • 24июля
    Среда
    +16°
    +26°
    Практически безоблачно
    ВремяПогодаТемператураВлажностьДавлениеВетер, м/сВероятность осадков
    00:00Ясно и безоблачно+16°C81 %754 мм2.0 м/с2 %
    03:00Ясно и безоблачно+15°C84 %754 мм1.8 м/с2 %
    06:00Ясно и безоблачно+16°C81 %754 мм1.7 м/с2 %
    09:00Ясно и безоблачно+21°C65 %754 мм1.3 м/с2 %
    12:00Ясно и безоблачно+24°C47 %753 мм1.9 м/с2 %
    15:00Практически безоблачно+25°C44 %753 мм1.8 м/с2 %
    18:00Ясно и безоблачно+25°C47 %752 мм1.3 м/с2 %
    21:00Небольшая облачность+22°C65 %752 мм0.0 м/с2 %
  • 25июля
    Четверг
    +17°
    +27°
    Облачно с прояснениями
    ВремяПогодаТемператураВлажностьДавлениеВетер, м/сВероятность осадков
    00:00Ясно и безоблачно+16°C83 %752 мм1.8 м/с2 %
    03:00Ясно и безоблачно+18°C65 %752 мм1.1 м/с2 %
    06:00Ясно и безоблачно+18°C73 %752 мм1.1 м/с2 %
    09:00Ясно и безоблачно+23°C61 %752 мм1.0 м/с2 %
    12:00Облачно с прояснениями+25°C43 %751 мм1.5 м/с5 %
    15:00Облачно с прояснениями+26°C41 %751 мм1.4 м/с12 %
    18:00Небольшая облачность+26°C46 %750 мм0.5 м/с15 %
    21:00Практически безоблачно+22°C70 %751 мм2.7 м/с2 %
  • 26июля
    Пятница
    +16°
    +26°
    Небольшая облачность
    ВремяПогодаТемператураВлажностьДавлениеВетер, м/сВероятность осадков
    00:00Ясно и безоблачно+18°C82 %751 мм2.1 м/с2 %
    03:00Ясно и безоблачно+18°C79 %751 мм1.3 м/с2 %
    06:00Ясно и безоблачно+18°C86 %751 мм1.0 м/с2 %
    09:00Ясно и безоблачно+23°C63 %752 мм0.4 м/с5 %
    12:00Практически безоблачно+26°C47 %752 мм0.5 м/с17 %
    15:00Небольшая облачность+26°C48 %752 мм0.7 м/с28 %
    18:00Практически безоблачно+26°C52 %752 мм1.0 м/с27 %
    21:00Ясно и безоблачно+22°C82 %752 мм1.6 м/с13 %
Мы используем cookies
Соглашаюсь